Okmulgee, Oklahoma
Current Conditions -  °F | °C
As of 9:35 PM on Friday 28 Nov 2014 (Local Time) from KOKM Reporting Station
Clear Clear  
Wind Chill: 56°   Ceiling: Unl
Heat Index: 56°   Visibility: 10mi
Dew Point: 48°   Wind: 12mph
Humidity: 74%   Direction: 180°S
Pressure: 29.89"   Gusts: 17mph
Location:  35.62°N, 95.97°W
Report Text: KOKM 290335Z AUTO 18010G15KT 10SM CLR 14/09 A2989 RMK AO2 T01360090
Loading
Personal Weather Stations






























Interactive Weather Map New forecast layout! Learn more

10-Day Weather Forecast

Advertisements
Track Severe Weather on mobile